Time;durP1;ratioP1;P1;durP2;ratioP2;P2;SDS_P1;SDS_P2;PMS_P1;PMS_P2;Temp;Humidity;BMP_temperature;BMP_pressure;BME280_temperature;BME280_humidity;BME280_pressure;Samples;Min_cycle;Max_cycle;Signal;HPM_P1;HPM_P2
2022/01/07 00:01:12;;;;;;;11.00;5.25;;;0.50;99.90;;;;;;5031074;28;20458;-80
2022/01/07 00:03:38;;;;;;;9.95;4.93;;;0.50;99.90;;;;;;5029504;28;20022;-80
2022/01/07 00:06:04;;;;;;;9.65;4.97;;;0.50;99.90;;;;;;5032234;28;20048;-79
2022/01/07 00:08:30;;;;;;;12.25;5.38;;;0.50;99.90;;;;;;5031044;28;20053;-79
2022/01/07 00:10:56;;;;;;;12.35;5.93;;;0.50;99.90;;;;;;5029543;28;20531;-80
2022/01/07 00:13:22;;;;;;;12.68;6.28;;;0.30;99.90;;;;;;5028811;28;20057;-80
2022/01/07 00:15:49;;;;;;;15.07;6.45;;;0.10;99.90;;;;;;5030301;28;20022;-80
2022/01/07 00:18:14;;;;;;;11.00;5.75;;;0.30;99.90;;;;;;5030875;28;20029;-80
2022/01/07 00:20:41;;;;;;;12.15;6.28;;;0.30;99.90;;;;;;5031517;28;20030;-80
2022/01/07 00:23:07;;;;;;;15.07;6.55;;;0.40;99.90;;;;;;5029883;28;20032;-80
2022/01/07 00:25:33;;;;;;;13.50;6.15;;;0.40;99.90;;;;;;5029206;28;20029;-80
2022/01/07 00:27:58;;;;;;;15.63;6.70;;;0.40;99.90;;;;;;5027142;28;20068;-80
2022/01/07 00:30:24;;;;;;;12.77;5.65;;;0.40;99.90;;;;;;5030416;28;20087;-80
2022/01/07 00:32:52;;;;;;;11.60;5.88;;;0.40;99.90;;;;;;5031738;28;20406;-80
2022/01/07 00:35:19;;;;;;;9.70;4.80;;;0.30;99.90;;;;;;5028522;28;20547;-80
2022/01/07 00:37:46;;;;;;;9.35;4.68;;;0.30;99.90;;;;;;5029586;28;20071;-80
2022/01/07 00:40:15;;;;;;;11.85;6.00;;;0.30;99.90;;;;;;5028480;28;20091;-79
2022/01/07 00:42:41;;;;;;;10.75;5.18;;;0.30;99.90;;;;;;5029014;28;20041;-80
2022/01/07 00:45:08;;;;;;;8.35;4.68;;;0.30;99.90;;;;;;5030574;28;20065;-80
2022/01/07 00:47:34;;;;;;;7.93;4.78;;;0.20;99.90;;;;;;5026929;28;20025;-79
2022/01/07 00:49:59;;;;;;;6.45;4.07;;;0.20;99.90;;;;;;5029773;28;20029;-80
2022/01/07 00:52:25;;;;;;;7.63;4.60;;;0.20;99.90;;;;;;5027960;28;20034;-79
2022/01/07 00:54:51;;;;;;;11.43;5.68;;;0.20;99.90;;;;;;5029855;28;20034;-79
2022/01/07 00:57:17;;;;;;;7.30;4.32;;;0.20;99.90;;;;;;5029986;28;20499;-80
2022/01/07 00:59:45;;;;;;;7.97;4.13;;;0.30;99.90;;;;;;5031085;28;20037;-79
2022/01/07 01:02:10;;;;;;;7.90;4.65;;;0.30;99.90;;;;;;5028901;28;20018;-79
2022/01/07 01:04:36;;;;;;;8.75;4.68;;;0.30;99.90;;;;;;5029413;28;20022;-79
2022/01/07 01:07:02;;;;;;;11.43;4.80;;;0.30;99.90;;;;;;5029844;28;20030;-79
2022/01/07 01:09:28;;;;;;;7.95;4.07;;;0.30;99.90;;;;;;5029708;28;20053;-79
2022/01/07 01:11:54;;;;;;;10.32;5.30;;;0.10;99.90;;;;;;5030840;28;20503;-79
2022/01/07 01:14:20;;;;;;;7.78;4.30;;;0.10;99.90;;;;;;5029478;28;20033;-79
2022/01/07 01:16:47;;;;;;;10.27;4.50;;;0.20;99.90;;;;;;5029670;28;20021;-79
2022/01/07 01:19:13;;;;;;;8.93;4.60;;;0.10;99.90;;;;;;5028153;28;20029;-79
2022/01/07 01:21:38;;;;;;;10.70;4.68;;;0.00;99.90;;;;;;5029304;28;20036;-79
2022/01/07 01:24:05;;;;;;;12.77;4.72;;;0.00;99.90;;;;;;5028670;28;20478;-78
2022/01/07 01:26:30;;;;;;;12.60;4.85;;;-0.10;99.90;;;;;;5028932;28;20018;-79
2022/01/07 01:28:56;;;;;;;14.73;6.05;;;0.00;99.90;;;;;;5029091;28;20393;-78
2022/01/07 01:31:22;;;;;;;13.82;5.63;;;0.00;99.90;;;;;;5029452;28;20049;-78
2022/01/07 01:33:48;;;;;;;13.27;6.65;;;0.00;99.90;;;;;;5027875;28;20040;-78
2022/01/07 01:36:14;;;;;;;12.82;5.57;;;0.00;99.90;;;;;;5028982;28;20021;-78
2022/01/07 01:38:41;;;;;;;13.18;5.32;;;0.00;99.90;;;;;;5019441;28;20507;-78
2022/01/07 01:41:08;;;;;;;15.43;5.72;;;-0.10;99.90;;;;;;5029056;28;20026;-78
2022/01/07 01:43:34;;;;;;;13.80;5.53;;;-0.10;99.90;;;;;;5028832;28;20506;-78
2022/01/07 01:46:00;;;;;;;10.15;5.78;;;0.00;99.90;;;;;;5027996;28;20052;-78
2022/01/07 01:48:26;;;;;;;12.05;5.35;;;-0.10;99.90;;;;;;5028827;28;20038;-78
2022/01/07 01:50:56;;;;;;;10.77;5.55;;;-0.10;99.90;;;;;;5029066;28;20125;-78
2022/01/07 01:53:24;;;;;;;16.50;5.70;;;-0.20;99.90;;;;;;5028763;28;20034;-78
2022/01/07 01:55:51;;;;;;;8.18;4.50;;;-0.10;99.90;;;;;;5028928;28;20013;-78
2022/01/07 01:58:17;;;;;;;9.35;4.97;;;-0.10;99.90;;;;;;5027476;28;20183;-78
2022/01/07 02:00:42;;;;;;;12.48;5.40;;;-0.20;99.90;;;;;;5028743;28;20490;-78
2022/01/07 02:03:08;;;;;;;15.32;5.97;;;-0.20;99.90;;;;;;5029117;28;20022;-78
2022/01/07 02:05:34;;;;;;;16.20;6.13;;;-0.20;99.90;;;;;;5029435;28;20490;-78
2022/01/07 02:08:00;;;;;;;13.48;5.68;;;-0.20;99.90;;;;;;5027053;28;20509;-78
2022/01/07 02:10:27;;;;;;;11.77;5.95;;;-0.20;99.90;;;;;;5028822;28;20026;-78
2022/01/07 02:12:53;;;;;;;12.65;5.55;;;-0.20;99.90;;;;;;5028207;28;20033;-78
2022/01/07 02:15:19;;;;;;;11.50;5.82;;;-0.20;99.90;;;;;;5028663;28;20044;-78
2022/01/07 02:17:47;;;;;;;11.13;5.53;;;-0.20;99.90;;;;;;5030330;28;20494;-78
2022/01/07 02:20:17;;;;;;;13.68;5.47;;;-0.40;99.90;;;;;;5026923;28;20029;-78
2022/01/07 02:22:43;;;;;;;12.57;5.55;;;-0.40;99.90;;;;;;5026725;28;20036;-78
2022/01/07 02:25:10;;;;;;;11.52;5.68;;;-0.40;99.90;;;;;;5026625;28;20019;-78
2022/01/07 02:27:38;;;;;;;13.70;6.05;;;-0.40;99.90;;;;;;5041147;28;20076;-78
2022/01/07 02:30:06;;;;;;;14.35;5.65;;;-0.40;99.90;;;;;;5027963;28;20479;-78
2022/01/07 02:32:32;;;;;;;15.65;6.40;;;-0.40;99.90;;;;;;5028681;28;20347;-78
2022/01/07 02:34:57;;;;;;;10.63;6.10;;;-0.50;99.90;;;;;;5028722;28;20029;-78
2022/01/07 02:37:23;;;;;;;12.48;5.78;;;-0.50;99.90;;;;;;5027498;28;20515;-78
2022/01/07 02:39:49;;;;;;;11.52;5.95;;;-0.50;99.90;;;;;;5026988;28;20384;-78
2022/01/07 02:42:15;;;;;;;11.00;5.90;;;-0.50;99.90;;;;;;5028523;28;20072;-78
2022/01/07 02:44:41;;;;;;;12.25;5.28;;;-0.60;99.90;;;;;;5029391;28;20022;-78
2022/01/07 02:47:07;;;;;;;13.98;5.20;;;-0.60;99.90;;;;;;5028077;28;20533;-78
2022/01/07 02:49:33;;;;;;;11.60;4.78;;;-0.70;99.90;;;;;;5027980;28;20018;-78
2022/01/07 02:51:59;;;;;;;9.75;4.85;;;-0.60;99.90;;;;;;5026381;28;20025;-78
2022/01/07 02:54:24;;;;;;;10.32;5.68;;;-0.60;99.90;;;;;;5028145;28;20457;-78
2022/01/07 02:56:50;;;;;;;12.77;5.75;;;-0.60;99.90;;;;;;5029819;28;20022;-78
2022/01/07 02:59:16;;;;;;;10.77;4.82;;;-0.60;99.90;;;;;;5026507;28;20549;-78
2022/01/07 03:01:42;;;;;;;11.70;5.45;;;-0.60;99.90;;;;;;5026434;28;20032;-78
2022/01/07 03:04:08;;;;;;;11.73;5.25;;;-0.60;99.90;;;;;;5027352;28;20030;-79
2022/01/07 03:06:35;;;;;;;12.82;6.20;;;-0.70;99.90;;;;;;5028029;28;20071;-78
2022/01/07 03:09:01;;;;;;;7.70;4.07;;;-0.70;99.90;;;;;;5026026;28;20097;-78
2022/01/07 03:11:27;;;;;;;8.85;4.50;;;-0.70;99.90;;;;;;5027352;28;20029;-78
2022/01/07 03:13:53;;;;;;;7.35;4.40;;;-0.70;99.90;;;;;;5027223;28;20026;-78
2022/01/07 03:16:18;;;;;;;9.20;4.60;;;-0.60;99.90;;;;;;5026860;28;20363;-78
2022/01/07 03:18:44;;;;;;;9.98;4.20;;;-0.60;99.90;;;;;;5026311;28;20487;-78
2022/01/07 03:21:11;;;;;;;7.38;3.80;;;-0.70;99.90;;;;;;5026963;28;20017;-78
2022/01/07 03:23:37;;;;;;;7.55;4.22;;;-0.60;99.90;;;;;;5029094;28;20104;-78
2022/01/07 03:26:06;;;;;;;6.53;3.72;;;-0.70;99.90;;;;;;5029638;28;20702;-78
2022/01/07 03:28:32;;;;;;;5.45;4.07;;;-0.70;99.90;;;;;;5031539;28;20025;-78
2022/01/07 03:30:58;;;;;;;8.32;3.80;;;-0.70;99.90;;;;;;5031877;28;20029;-78
2022/01/07 03:33:23;;;;;;;8.10;3.40;;;-0.80;99.90;;;;;;5031782;28;20034;-78
2022/01/07 03:35:49;;;;;;;10.20;3.72;;;-0.90;99.90;;;;;;5033221;28;20486;-78
2022/01/07 03:38:15;;;;;;;9.80;4.18;;;-0.80;99.90;;;;;;5029125;28;20072;-77
2022/01/07 03:40:41;;;;;;;7.18;3.47;;;-0.80;99.90;;;;;;5030727;28;20428;-77
2022/01/07 03:43:07;;;;;;;9.68;4.05;;;-0.90;99.90;;;;;;5031461;28;20032;-78
2022/01/07 03:45:33;;;;;;;9.95;4.97;;;-1.00;99.90;;;;;;5031004;28;20036;-77
2022/01/07 03:47:59;;;;;;;8.05;3.72;;;-1.00;99.90;;;;;;5028332;28;20017;-77
2022/01/07 03:50:29;;;;;;;7.75;3.88;;;-0.90;99.90;;;;;;5031342;28;20498;-77
2022/01/07 03:52:57;;;;;;;7.55;3.65;;;-0.90;99.90;;;;;;5031325;28;20053;-77
2022/01/07 03:55:25;;;;;;;7.82;3.92;;;-1.00;99.90;;;;;;5027065;28;20061;-77
2022/01/07 03:57:51;;;;;;;6.95;3.40;;;-1.00;99.90;;;;;;5029732;28;20116;-77
2022/01/07 04:00:23;;;;;;;8.55;3.55;;;-0.90;99.90;;;;;;5031141;28;20021;-77
2022/01/07 04:02:49;;;;;;;8.07;3.80;;;-0.90;99.90;;;;;;5032699;28;20030;-77
2022/01/07 04:05:19;;;;;;;10.00;3.75;;;-0.80;99.90;;;;;;5030672;28;20029;-77
2022/01/07 04:07:45;;;;;;;7.00;3.33;;;-0.70;99.90;;;;;;5029774;28;20192;-77
2022/01/07 04:10:11;;;;;;;9.85;3.88;;;-0.70;99.90;;;;;;5030847;28;20029;-77
2022/01/07 04:12:36;;;;;;;8.77;3.92;;;-0.60;99.90;;;;;;5030243;28;20029;-77
2022/01/07 04:15:09;;;;;;;8.10;3.55;;;-0.50;99.90;;;;;;5032379;28;20100;-77
2022/01/07 04:17:42;;;;;;;7.07;3.38;;;-0.40;99.90;;;;;;5018305;28;20034;-77
2022/01/07 04:20:10;;;;;;;5.88;3.13;;;-0.50;99.90;;;;;;5025469;28;20064;-77
2022/01/07 04:22:36;;;;;;;5.65;2.95;;;-0.40;99.90;;;;;;5030790;28;20108;-77
2022/01/07 04:25:05;;;;;;;6.13;3.47;;;-0.40;99.90;;;;;;5029560;28;20571;-76
2022/01/07 04:27:31;;;;;;;6.07;3.58;;;-0.40;99.90;;;;;;5030199;28;20029;-77
2022/01/07 04:29:57;;;;;;;9.43;3.75;;;-0.40;99.90;;;;;;5030580;28;20033;-77
2022/01/07 04:32:22;;;;;;;8.05;4.00;;;-0.40;99.90;;;;;;5030200;28;20108;-77
2022/01/07 04:34:48;;;;;;;7.75;3.47;;;-0.30;99.90;;;;;;5030094;28;20441;-78
2022/01/07 04:37:14;;;;;;;4.47;2.97;;;-0.30;99.90;;;;;;5028401;28;20545;-77
2022/01/07 04:39:40;;;;;;;6.32;3.88;;;-0.40;99.90;;;;;;5030370;28;20091;-77
2022/01/07 04:42:06;;;;;;;4.95;3.13;;;-0.40;99.90;;;;;;5031239;28;20075;-77
2022/01/07 04:44:32;;;;;;;4.97;3.20;;;-0.30;99.90;;;;;;5030748;28;20041;-77
2022/01/07 04:46:58;;;;;;;5.60;2.92;;;-0.20;99.90;;;;;;5030499;28;20057;-77
2022/01/07 04:49:23;;;;;;;5.90;3.03;;;-0.30;99.90;;;;;;5020990;28;20026;-77
2022/01/07 04:51:49;;;;;;;5.88;2.83;;;-0.30;99.90;;;;;;5029773;28;20027;-77
2022/01/07 04:54:15;;;;;;;5.07;3.20;;;-0.30;99.90;;;;;;5030207;28;20550;-77
2022/01/07 04:56:40;;;;;;;6.50;3.00;;;-0.20;99.90;;;;;;5030884;28;20014;-77
2022/01/07 04:59:06;;;;;;;4.40;2.90;;;-0.20;99.90;;;;;;5026773;28;20487;-77
2022/01/07 05:01:32;;;;;;;8.27;3.50;;;-0.20;99.90;;;;;;5029734;28;20100;-77
2022/01/07 05:03:57;;;;;;;7.53;4.30;;;-0.20;99.90;;;;;;5028370;28;20522;-77
2022/01/07 05:06:44;;;;;;;5.82;2.83;;;-0.10;99.90;;;;;;5029395;28;20067;-77
2022/01/07 05:09:09;;;;;;;5.97;3.00;;;-0.10;99.90;;;;;;5026735;28;20449;-77
2022/01/07 05:11:35;;;;;;;5.85;3.08;;;-0.20;99.90;;;;;;5030976;28;20041;-77
2022/01/07 05:14:00;;;;;;;4.55;2.63;;;-0.20;99.90;;;;;;5020609;28;20025;-76
2022/01/07 05:16:28;;;;;;;5.10;3.53;;;-0.10;99.90;;;;;;5023955;28;20487;-77
2022/01/07 05:18:54;;;;;;;4.80;2.40;;;-0.10;99.90;;;;;;5027302;28;20040;-77
2022/01/07 05:21:20;;;;;;;6.35;2.60;;;-0.10;99.90;;;;;;5029117;28;20021;-77
2022/01/07 05:23:45;;;;;;;5.18;2.60;;;-0.10;99.90;;;;;;5030773;28;20075;-77
2022/01/07 05:26:11;;;;;;;5.22;2.70;;;-0.20;99.90;;;;;;5027840;28;20108;-77
2022/01/07 05:28:37;;;;;;;4.18;3.00;;;-0.20;99.90;;;;;;5029161;28;20525;-77
2022/01/07 05:31:04;;;;;;;4.82;2.92;;;-0.10;99.90;;;;;;5027007;28;20450;-77
2022/01/07 05:33:30;;;;;;;5.38;3.10;;;0.00;99.90;;;;;;5029253;28;20026;-76
2022/01/07 05:35:55;;;;;;;7.15;2.63;;;0.00;99.90;;;;;;5030728;28;20033;-77
2022/01/07 05:38:21;;;;;;;5.50;2.58;;;-0.10;99.90;;;;;;5029190;28;20045;-76
2022/01/07 05:40:47;;;;;;;3.55;2.10;;;-0.10;99.90;;;;;;5028812;28;20402;-76
2022/01/07 05:43:12;;;;;;;5.63;2.63;;;-0.10;99.90;;;;;;5028764;28;20551;-76
2022/01/07 05:45:38;;;;;;;5.03;2.40;;;-0.10;99.90;;;;;;5028024;28;20029;-76
2022/01/07 05:48:04;;;;;;;4.50;2.67;;;-0.20;99.90;;;;;;5019714;28;20521;-76
2022/01/07 05:50:30;;;;;;;5.20;2.83;;;-0.10;99.90;;;;;;5016885;28;20121;-77
2022/01/07 05:52:56;;;;;;;5.93;3.30;;;-0.10;99.90;;;;;;5028476;28;20155;-76
2022/01/07 05:55:21;;;;;;;4.47;2.60;;;-0.10;99.90;;;;;;5028936;28;20048;-76
2022/01/07 05:57:47;;;;;;;4.95;2.88;;;0.00;99.90;;;;;;5028315;28;20097;-76
2022/01/07 06:00:13;;;;;;;6.00;2.65;;;0.00;99.90;;;;;;5028020;28;20033;-77
2022/01/07 06:02:40;;;;;;;4.20;2.58;;;0.00;99.90;;;;;;5029864;28;20018;-76
2022/01/07 06:05:06;;;;;;;6.50;3.35;;;0.10;99.90;;;;;;5028836;28;20029;-76
2022/01/07 06:07:32;;;;;;;6.32;2.83;;;0.20;99.90;;;;;;5023825;28;20025;-76
2022/01/07 06:09:58;;;;;;;7.25;3.22;;;0.20;99.90;;;;;;5021891;28;20033;-77
2022/01/07 06:12:23;;;;;;;9.02;3.55;;;0.20;99.90;;;;;;5028466;28;20032;-77
2022/01/07 06:14:49;;;;;;;7.90;3.85;;;0.20;99.90;;;;;;5030030;28;20499;-76
2022/01/07 06:17:15;;;;;;;6.93;3.35;;;0.20;99.90;;;;;;5027796;28;20104;-76
2022/01/07 06:19:40;;;;;;;9.32;3.85;;;0.10;99.90;;;;;;5027575;28;20297;-76
2022/01/07 06:22:06;;;;;;;8.10;3.50;;;0.20;99.90;;;;;;5026785;28;20573;-76
2022/01/07 06:24:32;;;;;;;6.18;3.08;;;0.20;99.90;;;;;;5027129;28;20031;-76
2022/01/07 06:26:58;;;;;;;8.65;3.38;;;0.30;99.90;;;;;;5029305;28;20167;-77
2022/01/07 06:29:24;;;;;;;7.55;3.40;;;0.30;99.90;;;;;;5028327;28;20054;-76
2022/01/07 06:31:50;;;;;;;7.78;3.47;;;0.30;99.90;;;;;;5027857;28;20455;-77
2022/01/07 06:34:20;;;;;;;7.25;3.20;;;0.30;99.90;;;;;;5027696;28;20052;-76
2022/01/07 06:36:48;;;;;;;6.95;3.00;;;0.40;99.90;;;;;;5014307;28;20017;-77
2022/01/07 06:39:16;;;;;;;7.15;3.35;;;0.30;99.90;;;;;;5027700;28;20049;-76
2022/01/07 06:41:42;;;;;;;7.50;3.80;;;0.40;99.90;;;;;;5029222;28;20053;-77
2022/01/07 06:44:07;;;;;;;7.53;3.53;;;0.30;99.90;;;;;;5026173;28;20429;-77
2022/01/07 06:46:33;;;;;;;8.80;3.47;;;0.30;99.90;;;;;;5028283;28;20025;-77
2022/01/07 06:48:59;;;;;;;8.98;3.55;;;0.40;99.90;;;;;;5028256;28;20056;-76
2022/01/07 06:51:24;;;;;;;7.78;3.75;;;0.30;99.90;;;;;;5027032;28;20029;-77
2022/01/07 06:53:50;;;;;;;8.25;4.22;;;0.30;99.90;;;;;;5029548;28;20561;-76
2022/01/07 06:56:16;;;;;;;7.80;3.97;;;0.40;99.90;;;;;;5026625;28;20017;-77
2022/01/07 06:58:42;;;;;;;7.38;4.15;;;0.20;99.90;;;;;;5027933;28;20570;-77
2022/01/07 07:01:07;;;;;;;7.35;3.85;;;0.30;99.90;;;;;;5031815;28;20024;-77
2022/01/07 07:03:35;;;;;;;7.20;3.72;;;0.30;99.90;;;;;;5031935;28;20514;-77
2022/01/07 07:06:01;;;;;;;5.82;3.50;;;0.20;99.90;;;;;;5033235;28;20022;-77
2022/01/07 07:08:28;;;;;;;9.02;3.58;;;0.20;99.90;;;;;;5020394;28;20033;-77
2022/01/07 07:10:54;;;;;;;6.95;4.15;;;0.30;99.90;;;;;;5031876;28;20021;-76
2022/01/07 07:13:20;;;;;;;8.27;3.97;;;0.30;99.90;;;;;;5030858;28;20563;-76
2022/01/07 07:15:45;;;;;;;5.88;3.65;;;0.20;99.90;;;;;;5031972;28;20514;-77
2022/01/07 07:18:11;;;;;;;4.80;3.17;;;0.40;99.90;;;;;;5031888;28;20040;-76
2022/01/07 07:20:37;;;;;;;4.85;3.10;;;0.40;99.90;;;;;;5030584;28;20619;-77
2022/01/07 07:23:02;;;;;;;7.30;3.97;;;0.50;99.90;;;;;;5031068;28;20491;-76
2022/01/07 07:25:28;;;;;;;7.00;3.15;;;0.50;99.90;;;;;;5028665;28;20113;-77
2022/01/07 07:27:54;;;;;;;8.30;3.70;;;0.50;99.90;;;;;;5029505;28;20532;-76
2022/01/07 07:30:20;;;;;;;5.57;2.97;;;0.40;99.90;;;;;;5029858;28;20445;-77
2022/01/07 07:32:47;;;;;;;5.40;2.90;;;0.30;99.90;;;;;;5032640;28;20633;-77
2022/01/07 07:37:42;;;;;;;6.15;3.60;;;0.50;99.90;;;;;;5029079;28;20037;-77
2022/01/07 07:40:08;;;;;;;6.35;3.97;;;0.40;99.90;;;;;;5040533;28;20077;-77
2022/01/07 07:42:34;;;;;;;6.95;4.00;;;0.40;99.90;;;;;;5027641;28;20026;-77
2022/01/07 07:44:59;;;;;;;7.43;4.60;;;0.50;99.90;;;;;;5022115;28;20031;-77
2022/01/07 07:47:25;;;;;;;10.18;4.82;;;0.40;99.90;;;;;;5026756;28;20478;-76
2022/01/07 07:49:51;;;;;;;7.97;4.15;;;0.30;99.90;;;;;;5025682;28;20017;-76
2022/01/07 07:52:17;;;;;;;6.90;3.90;;;0.60;99.90;;;;;;5024979;28;20026;-76
2022/01/07 07:54:42;;;;;;;8.82;4.85;;;0.80;99.90;;;;;;5027782;28;20473;-76
2022/01/07 07:57:08;;;;;;;7.97;5.07;;;0.80;99.90;;;;;;5029475;28;20037;-76
2022/01/07 07:59:34;;;;;;;7.43;4.40;;;0.80;99.90;;;;;;5030697;28;20028;-76
2022/01/07 08:02:01;;;;;;;9.15;4.88;;;0.80;99.90;;;;;;5028877;28;20037;-76
2022/01/07 08:04:27;;;;;;;7.43;3.90;;;0.80;99.90;;;;;;5027667;28;20028;-76
2022/01/07 08:06:53;;;;;;;7.93;4.50;;;0.90;99.90;;;;;;5028635;28;20026;-77
2022/01/07 08:09:19;;;;;;;7.05;3.78;;;0.80;99.90;;;;;;5029915;28;20033;-76
2022/01/07 08:11:53;;;;;;;6.63;3.92;;;0.70;99.90;;;;;;5028834;28;20084;-76
2022/01/07 08:17:06;;;;;;;7.95;3.85;;;0.80;99.90;;;;;;5029000;28;20032;-76
2022/01/07 08:19:33;;;;;;;7.30;4.00;;;0.70;99.90;;;;;;5028473;28;20033;-76
2022/01/07 08:21:58;;;;;;;8.70;4.20;;;0.80;99.90;;;;;;5026582;28;20044;-77
2022/01/07 08:24:24;;;;;;;9.85;4.78;;;0.80;99.90;;;;;;5020610;28;20104;-78
2022/01/07 08:26:50;;;;;;;8.30;4.45;;;0.90;99.90;;;;;;5024114;28;20095;-76
2022/01/07 08:29:17;;;;;;;8.63;3.92;;;0.90;99.90;;;;;;5021497;28;20263;-75
2022/01/07 08:36:53;;;;;;;6.88;4.13;;;1.00;99.90;;;;;;5027545;28;20037;-76
2022/01/07 08:39:19;;;;;;;8.32;4.70;;;1.20;99.90;;;;;;5025521;28;20056;-76
2022/01/07 08:41:45;;;;;;;9.88;5.50;;;1.10;99.90;;;;;;5025126;28;20048;-76
2022/01/07 08:44:11;;;;;;;9.82;5.13;;;1.20;99.90;;;;;;5028413;28;20025;-76
2022/01/07 08:46:38;;;;;;;8.60;5.53;;;1.20;99.90;;;;;;5028687;28;20036;-77
2022/01/07 08:49:05;;;;;;;9.80;5.50;;;1.10;99.90;;;;;;5025708;28;20557;-76
2022/01/07 08:51:31;;;;;;;9.50;5.20;;;1.20;99.90;;;;;;5027215;28;20033;-76
2022/01/07 08:53:57;;;;;;;8.75;5.43;;;1.20;99.90;;;;;;5025764;28;20116;-77
2022/01/07 08:56:24;;;;;;;7.25;4.38;;;1.30;99.90;;;;;;5023974;28;20033;-76
2022/01/07 08:58:59;;;;;;;9.60;4.82;;;1.30;99.90;;;;;;5022750;28;20064;-76
2022/01/07 09:01:28;;;;;;;6.18;4.22;;;1.40;99.90;;;;;;5026129;28;20041;-76
2022/01/07 09:03:53;;;;;;;8.43;4.80;;;1.50;99.90;;;;;;5026690;28;20024;-77
2022/01/07 09:06:19;;;;;;;8.50;4.25;;;1.60;99.90;;;;;;5026994;28;20038;-77
2022/01/07 09:08:45;;;;;;;8.63;4.90;;;1.50;99.90;;;;;;5029553;28;20014;-76
2022/01/07 09:11:11;;;;;;;7.72;4.15;;;1.50;99.90;;;;;;5026027;28;20490;-77
2022/01/07 09:13:37;;;;;;;6.88;4.72;;;1.60;99.90;;;;;;5019867;28;20025;-77
2022/01/07 09:16:03;;;;;;;8.27;4.78;;;2.00;99.90;;;;;;5024736;28;20414;-76
2022/01/07 09:18:31;;;;;;;6.28;3.95;;;2.50;99.90;;;;;;5021314;28;20038;-77
2022/01/07 09:20:58;;;;;;;8.93;4.05;;;2.30;99.90;;;;;;5028594;28;20033;-76
2022/01/07 09:23:24;;;;;;;6.95;3.72;;;2.30;99.90;;;;;;5017648;28;20052;-77
2022/01/07 09:25:49;;;;;;;9.18;4.28;;;2.30;99.90;;;;;;5023705;28;20119;-77
2022/01/07 09:28:15;;;;;;;8.75;3.95;;;2.20;99.90;;;;;;5022926;28;20048;-77
2022/01/07 09:30:41;;;;;;;5.72;3.75;;;2.20;99.90;;;;;;5039886;28;20030;-77
2022/01/07 09:33:06;;;;;;;10.13;5.10;;;2.20;99.90;;;;;;5024827;28;20040;-77
2022/01/07 09:35:32;;;;;;;7.28;4.32;;;2.20;99.90;;;;;;5027668;28;20406;-78
2022/01/07 09:37:58;;;;;;;7.80;4.47;;;2.30;99.90;;;;;;5027481;28;20075;-77
2022/01/07 09:40:24;;;;;;;7.30;4.60;;;2.40;99.90;;;;;;5025347;28;20026;-77
2022/01/07 09:43:01;;;;;;;6.90;4.00;;;2.40;99.90;;;;;;5025063;28;20029;-77
2022/01/07 09:45:28;;;;;;;8.52;4.15;;;2.50;99.90;;;;;;5026857;28;20049;-76
2022/01/07 09:47:54;;;;;;;7.07;3.83;;;2.60;99.90;;;;;;5028927;28;20076;-77
2022/01/07 09:50:20;;;;;;;7.75;3.88;;;2.70;99.90;;;;;;5026963;28;20112;-76
2022/01/07 09:52:46;;;;;;;5.43;3.67;;;2.80;99.90;;;;;;5022794;28;20430;-76
2022/01/07 09:55:12;;;;;;;5.07;3.45;;;2.90;99.90;;;;;;5025820;28;20069;-76
2022/01/07 09:57:38;;;;;;;6.93;3.80;;;2.90;99.90;;;;;;5025551;28;20246;-76
2022/01/07 10:00:07;;;;;;;8.85;3.95;;;2.80;99.90;;;;;;5029326;28;20056;-77
2022/01/07 10:02:32;;;;;;;6.65;4.22;;;2.80;99.90;;;;;;5028026;28;20032;-76
2022/01/07 10:05:17;;;;;;;8.68;4.60;;;2.80;99.90;;;;;;5023961;28;20394;-76
2022/01/07 10:07:43;;;;;;;7.40;5.55;;;2.70;99.90;;;;;;5022256;28;20356;-76
2022/01/07 10:10:18;;;;;;;7.22;4.38;;;2.60;99.90;;;;;;5026601;28;20017;-76
2022/01/07 10:13:00;;;;;;;7.43;3.67;;;2.60;99.90;;;;;;5023919;28;20062;-76
2022/01/07 10:15:31;;;;;;;7.53;3.92;;;2.50;99.90;;;;;;5026442;28;20071;-76
2022/01/07 10:18:05;;;;;;;10.80;4.05;;;2.60;99.90;;;;;;5027266;28;20030;-75
2022/01/07 10:20:34;;;;;;;8.00;4.55;;;2.60;99.90;;;;;;5026591;28;20064;-75
2022/01/07 10:23:06;;;;;;;11.73;4.75;;;2.50;99.90;;;;;;5022102;28;20529;-75
2022/01/07 10:25:36;;;;;;;7.85;4.63;;;2.60;99.90;;;;;;5026598;28;20036;-76
2022/01/07 10:28:09;;;;;;;8.07;5.03;;;2.70;99.90;;;;;;5024246;28;20076;-77
2022/01/07 10:30:44;;;;;;;7.60;3.88;;;2.80;99.90;;;;;;5026552;28;20042;-77
2022/01/07 10:33:26;;;;;;;8.07;4.47;;;2.90;99.90;;;;;;5022761;28;20021;-77
2022/01/07 10:35:53;;;;;;;;;;;3.10;99.90;;;;;;5028331;28;20017;-77
2022/01/07 10:38:29;;;;;;;8.18;4.07;;;3.20;99.90;;;;;;5027024;28;19928;-77
2022/01/07 10:41:00;;;;;;;6.10;3.92;;;3.30;99.90;;;;;;5020515;28;20117;-77
2022/01/07 10:43:32;;;;;;;8.93;4.57;;;3.40;99.90;;;;;;5023155;28;20030;-77
2022/01/07 10:46:00;;;;;;;8.50;4.90;;;3.50;99.90;;;;;;5024478;28;20064;-77
2022/01/07 10:48:42;;;;;;;9.65;4.70;;;3.60;99.90;;;;;;5024539;28;20033;-78
2022/01/07 10:51:11;;;;;;;9.38;4.13;;;3.70;99.90;;;;;;5023433;28;20040;-78
2022/01/07 10:53:38;;;;;;;7.72;3.97;;;3.90;99.90;;;;;;5028383;28;20022;-78
2022/01/07 10:56:08;;;;;;;8.13;4.05;;;4.00;99.90;;;;;;5026722;28;20021;-78
2022/01/07 10:58:49;;;;;;;8.95;4.45;;;4.10;99.90;;;;;;5025604;28;20027;-78
2022/01/07 11:01:21;;;;;;;7.47;4.15;;;4.00;99.90;;;;;;5025851;28;20025;-78
2022/01/07 11:03:54;;;;;;;7.10;4.78;;;4.00;99.90;;;;;;5027740;28;20024;-78
2022/01/07 11:06:21;;;;;;;7.95;4.60;;;3.90;99.90;;;;;;5026951;28;20025;-78
2022/01/07 11:08:50;;;;;;;9.50;4.88;;;3.80;99.90;;;;;;5027182;28;20025;-79
2022/01/07 11:11:16;;;;;;;8.50;4.32;;;3.70;99.90;;;;;;5027076;28;20032;-78
2022/01/07 11:13:42;;;;;;;6.97;4.55;;;3.60;99.90;;;;;;5025103;28;20473;-79
2022/01/07 11:16:08;;;;;;;7.82;4.35;;;3.60;99.90;;;;;;5026224;28;20117;-79
2022/01/07 11:18:38;;;;;;;8.13;4.47;;;3.80;99.90;;;;;;5026828;28;20477;-79
2022/01/07 11:21:06;;;;;;;8.93;4.55;;;3.90;99.90;;;;;;5026526;28;20117;-79
2022/01/07 11:23:33;;;;;;;9.57;5.25;;;3.90;99.90;;;;;;5026380;28;20043;-79
2022/01/07 11:26:04;;;;;;;11.27;5.13;;;4.00;99.90;;;;;;5024656;28;20025;-79
2022/01/07 11:28:30;;;;;;;10.13;5.57;;;4.00;99.90;;;;;;5026774;28;20017;-79
2022/01/07 11:31:13;;;;;;;10.95;5.82;;;4.00;99.90;;;;;;5026335;28;20112;-80
2022/01/07 11:33:40;;;;;;;10.50;5.43;;;4.10;99.90;;;;;;5033526;28;20033;-80
2022/01/07 11:36:12;;;;;;;12.57;6.10;;;4.10;99.90;;;;;;5027948;28;20042;-80
2022/01/07 11:38:46;;;;;;;8.82;5.05;;;4.20;99.90;;;;;;5027156;28;20081;-79
2022/01/07 11:41:35;;;;;;;10.27;5.70;;;4.40;99.90;;;;;;5023693;28;20030;-79
2022/01/07 11:44:34;;;;;;;9.70;4.78;;;4.70;99.90;;;;;;5024795;28;20022;-80
2022/01/07 11:47:23;;;;;;;6.90;3.95;;;4.60;99.90;;;;;;4972299;28;20047;-79
2022/01/07 11:50:07;;;;;;;7.32;3.70;;;4.60;99.90;;;;;;4972967;28;20031;-79
2022/01/07 11:52:37;;;;;;;5.43;3.03;;;4.50;99.90;;;;;;4962811;28;20129;-79
2022/01/07 11:55:20;;;;;;;6.70;2.67;;;4.30;99.90;;;;;;4970695;28;20029;-79
2022/01/07 11:58:03;;;;;;;5.22;3.00;;;4.30;99.90;;;;;;4970489;28;20035;-78
2022/01/07 12:00:52;;;;;;;3.92;3.05;;;4.30;99.90;;;;;;4952536;28;20538;-78
2022/01/07 12:03:43;;;;;;;4.72;2.67;;;4.40;99.90;;;;;;4968506;28;20563;-78
2022/01/07 12:06:23;;;;;;;2.83;2.13;;;4.30;99.90;;;;;;4968993;28;20026;-79
2022/01/07 12:09:08;;;;;;;4.70;2.63;;;4.30;99.90;;;;;;4974403;28;20027;-79
2022/01/07 12:12:06;;;;;;;5.75;3.47;;;4.50;99.90;;;;;;4952428;28;20049;-79
2022/01/07 12:14:51;;;;;;;7.88;4.22;;;4.60;99.90;;;;;;4940632;29;20086;-79
2022/01/07 12:17:18;;;;;;;7.63;3.65;;;4.70;99.90;;;;;;4970736;28;20067;-79
2022/01/07 12:19:47;;;;;;;5.40;3.50;;;4.70;99.90;;;;;;4972870;28;20041;-79
2022/01/07 12:22:16;;;;;;;11.77;3.75;;;4.70;99.90;;;;;;4986977;28;20045;-79
2022/01/07 12:24:43;;;;;;;7.47;3.78;;;4.80;99.90;;;;;;5026010;28;20537;-79
2022/01/07 12:27:16;;;;;;;6.57;4.13;;;4.80;99.90;;;;;;5025926;28;20022;-79
2022/01/07 12:29:45;;;;;;;4.32;3.72;;;4.90;99.90;;;;;;5027217;28;20025;-79
2022/01/07 12:32:12;;;;;;;5.72;3.53;;;5.10;99.90;;;;;;5028621;28;20571;-79
2022/01/07 12:34:43;;;;;;;6.32;3.08;;;5.20;99.90;;;;;;5024744;28;20021;-79
2022/01/07 12:37:12;;;;;;;3.70;2.50;;;5.20;99.90;;;;;;5029816;28;20024;-79
2022/01/07 12:39:43;;;;;;;4.85;2.13;;;5.50;99.90;;;;;;5025373;28;20288;-80
2022/01/07 12:42:10;;;;;;;5.70;2.28;;;5.70;99.90;;;;;;5025655;28;20087;-79
2022/01/07 12:44:39;;;;;;;6.03;2.40;;;5.80;99.90;;;;;;5026283;28;20056;-80
2022/01/07 12:47:07;;;;;;;5.47;2.60;;;5.90;99.90;;;;;;5025902;28;20025;-80
2022/01/07 12:49:41;;;;;;;8.95;2.45;;;5.80;99.90;;;;;;5025591;28;20049;-80
2022/01/07 12:52:15;;;;;;;6.25;2.83;;;5.70;99.90;;;;;;5021901;28;20030;-80
2022/01/07 12:54:57;;;;;;;3.55;2.05;;;5.60;99.90;;;;;;5027241;28;20022;-81
2022/01/07 12:57:30;;;;;;;;;;;5.60;99.90;;;;;;5028670;28;20550;-81
2022/01/07 13:00:08;;;;;;;4.47;2.00;;;5.70;99.90;;;;;;5029702;28;19909;-81
2022/01/07 13:02:34;;;;;;;5.30;1.70;;;5.70;99.90;;;;;;5044614;28;20033;-81
2022/01/07 13:05:15;;;;;;;2.10;1.40;;;5.70;99.90;;;;;;5028215;28;20080;-81
2022/01/07 13:07:42;;;;;;;;;;;5.70;99.90;;;;;;5027295;28;20033;-81